createdAt,value
2017-11-15T00:01:50.210Z,100402.45
2017-11-15T00:04:16.506Z,100403.72
2017-11-15T00:06:42.819Z,100400.29
2017-11-15T00:09:09.042Z,100402.89
2017-11-15T00:11:35.291Z,100404.94
2017-11-15T00:14:01.536Z,100405.98
2017-11-15T00:16:27.780Z,100406.18
2017-11-15T00:18:54.014Z,100407.64
2017-11-15T00:21:20.265Z,100408.89
2017-11-15T00:23:46.479Z,100406.29
2017-11-15T00:26:12.757Z,100405.48
2017-11-15T00:28:39.022Z,100412.10
2017-11-15T00:31:05.349Z,100411.66
2017-11-15T00:33:31.597Z,100412.59
2017-11-15T00:35:57.886Z,100412.81
2017-11-15T00:38:24.109Z,100416.00
2017-11-15T00:40:50.315Z,100418.47
2017-11-15T00:43:16.585Z,100419.51
2017-11-15T00:45:42.824Z,100412.69
2017-11-15T00:48:09.030Z,100407.52
2017-11-15T00:50:35.303Z,100414.02
2017-11-15T00:53:01.525Z,100419.40
2017-11-15T00:55:27.768Z,100416.72
2017-11-15T00:57:54.022Z,100426.82
2017-11-15T01:00:20.231Z,100421.15
2017-11-15T01:02:46.454Z,100419.70
2017-11-15T01:05:12.757Z,100420.95
2017-11-15T01:07:38.992Z,100412.58
2017-11-15T01:10:05.245Z,100423.42
2017-11-15T01:12:31.556Z,100424.67
2017-11-15T01:14:57.800Z,100420.34
2017-11-15T01:17:24.048Z,100429.61
2017-11-15T01:19:50.325Z,100427.33
2017-11-15T01:22:16.560Z,100430.14
2017-11-15T01:24:42.801Z,100425.81
2017-11-15T01:27:09.112Z,100425.70
2017-11-15T01:29:35.347Z,100423.63
2017-11-15T01:32:01.589Z,100426.80
2017-11-15T01:34:27.878Z,100435.38
2017-11-15T01:36:54.113Z,100432.51
2017-11-15T01:39:20.348Z,100427.13
2017-11-15T01:41:46.717Z,100425.16
2017-11-15T01:44:12.953Z,100420.58
2017-11-15T01:46:39.205Z,100417.48
2017-11-15T01:49:05.498Z,100421.52
2017-11-15T01:51:31.749Z,100423.75
2017-11-15T01:53:57.999Z,100425.28
2017-11-15T01:56:24.277Z,100424.56
2017-11-15T01:58:50.526Z,100423.92
2017-11-15T02:01:16.779Z,100435.23
2017-11-15T02:03:43.065Z,100431.80
2017-11-15T02:06:09.309Z,100423.35
2017-11-15T02:08:35.556Z,100417.98
2017-11-15T02:11:01.927Z,100415.18
2017-11-15T02:13:28.162Z,100420.36
2017-11-15T02:15:54.396Z,100421.22
2017-11-15T02:18:20.687Z,100429.87
2017-11-15T02:20:46.930Z,100426.78
2017-11-15T02:23:13.196Z,100428.02
2017-11-15T02:25:39.480Z,100428.74
2017-11-15T02:28:05.779Z,100433.97
2017-11-15T02:30:32.014Z,100443.73
2017-11-15T02:32:58.344Z,100440.89
2017-11-15T02:35:24.643Z,100439.64
2017-11-15T02:37:50.983Z,100433.56
2017-11-15T02:40:17.272Z,100442.30
2017-11-15T02:42:43.515Z,100440.67
2017-11-15T02:45:09.761Z,100448.02
2017-11-15T02:47:36.177Z,100440.91
2017-11-15T02:50:02.438Z,100442.28
2017-11-15T02:52:28.690Z,100436.31
2017-11-15T02:54:55.027Z,100436.42
2017-11-15T02:57:21.275Z,100440.75
2017-11-15T02:59:47.548Z,100449.20
2017-11-15T03:02:13.844Z,100431.86
2017-11-15T03:04:40.088Z,100448.30
2017-11-15T03:07:06.333Z,100454.19
2017-11-15T03:09:32.603Z,100452.20
2017-11-15T03:11:58.858Z,100456.42
2017-11-15T03:14:25.097Z,100463.55
2017-11-15T03:16:51.388Z,100467.05
2017-11-15T03:19:17.632Z,100457.56
2017-11-15T03:21:43.878Z,100461.05
2017-11-15T03:24:10.163Z,100468.00
2017-11-15T03:26:36.466Z,100466.22
2017-11-15T03:29:02.692Z,100467.80
2017-11-15T03:31:28.990Z,100472.80
2017-11-15T03:33:55.253Z,100480.81
2017-11-15T03:36:21.492Z,100480.71
2017-11-15T03:38:47.775Z,100485.80
2017-11-15T03:41:14.013Z,100479.31
2017-11-15T03:43:40.237Z,100473.64
2017-11-15T03:46:06.558Z,100476.04
2017-11-15T03:48:32.807Z,100468.69
2017-11-15T03:50:59.045Z,100469.20
2017-11-15T03:53:25.308Z,100470.31
2017-11-15T03:55:51.554Z,100473.05
2017-11-15T03:58:17.801Z,100472.26
2017-11-15T04:00:44.088Z,100471.09
2017-11-15T04:03:10.335Z,100466.25
2017-11-15T04:05:36.561Z,100470.68
2017-11-15T04:08:02.879Z,100471.74
2017-11-15T04:10:29.102Z,100477.03
2017-11-15T04:12:55.365Z,100479.61
2017-11-15T04:15:21.652Z,100484.14
2017-11-15T04:17:47.908Z,100485.69
2017-11-15T04:20:14.160Z,100485.52
2017-11-15T04:22:40.597Z,100492.47
2017-11-15T04:25:06.850Z,100494.97
2017-11-15T04:27:33.087Z,100501.60
2017-11-15T04:29:59.371Z,100501.61
2017-11-15T04:32:25.628Z,100511.30
2017-11-15T04:34:51.876Z,100513.70
2017-11-15T04:37:18.185Z,100514.22
2017-11-15T04:39:44.412Z,100510.23
2017-11-15T04:42:10.654Z,100512.71
2017-11-15T04:44:36.933Z,100501.78
2017-11-15T04:47:03.177Z,100510.88
2017-11-15T04:49:29.418Z,100521.06
2017-11-15T04:51:55.701Z,100522.38
2017-11-15T04:54:21.953Z,100524.61
2017-11-15T04:56:48.188Z,100531.96
2017-11-15T04:59:14.461Z,100530.38
2017-11-15T05:01:40.707Z,100535.19
2017-11-15T05:04:06.970Z,100545.09
2017-11-15T05:06:33.398Z,100552.73
2017-11-15T05:08:59.674Z,100555.31
2017-11-15T05:11:25.921Z,100566.09
2017-11-15T05:13:52.196Z,100564.02
2017-11-15T05:16:18.426Z,100567.02
2017-11-15T05:18:44.667Z,100572.36
2017-11-15T05:21:10.956Z,100576.97
2017-11-15T05:23:37.222Z,100583.85
2017-11-15T05:26:03.479Z,100590.57
2017-11-15T05:28:29.764Z,100591.64
2017-11-15T05:30:56.031Z,100595.41
2017-11-15T05:33:22.277Z,100594.58
2017-11-15T05:35:48.588Z,100597.35
2017-11-15T05:38:14.845Z,100598.80
2017-11-15T05:40:41.079Z,100604.97
2017-11-15T05:43:07.381Z,100607.96
2017-11-15T05:45:33.758Z,100582.34
2017-11-15T05:48:00.021Z,100607.20
2017-11-15T05:50:26.277Z,100615.28
2017-11-15T05:52:52.501Z,100614.87
2017-11-15T05:55:18.752Z,100621.91
2017-11-15T05:57:45.056Z,100628.50
2017-11-15T06:00:11.352Z,100621.34
2017-11-15T06:02:37.587Z,100622.95
2017-11-15T06:05:03.856Z,100623.55
2017-11-15T06:07:30.095Z,100627.91
2017-11-15T06:09:56.397Z,100637.50
2017-11-15T06:12:22.689Z,100638.62
2017-11-15T06:14:48.948Z,100649.45
2017-11-15T06:17:15.211Z,100650.87
2017-11-15T06:19:41.590Z,100651.83
2017-11-15T06:22:07.799Z,100662.20
2017-11-15T06:24:34.039Z,100662.13
2017-11-15T06:27:00.323Z,100658.19
2017-11-15T06:29:26.636Z,100661.77
2017-11-15T06:31:52.894Z,100663.95
2017-11-15T06:34:19.168Z,100667.07
2017-11-15T06:36:45.403Z,100667.56
2017-11-15T06:39:11.649Z,100667.75
2017-11-15T06:41:37.913Z,100669.66
2017-11-15T06:44:04.158Z,100675.30
2017-11-15T06:46:30.403Z,100673.45
2017-11-15T06:48:56.686Z,100678.84
2017-11-15T06:51:22.905Z,100678.37
2017-11-15T06:53:49.323Z,100674.23
2017-11-15T06:56:15.602Z,100679.88
2017-11-15T06:58:41.855Z,100675.56
2017-11-15T07:01:08.159Z,100681.75
2017-11-15T07:03:34.445Z,100686.67
2017-11-15T07:06:00.689Z,100676.12
2017-11-15T07:08:26.914Z,100682.81
2017-11-15T07:10:53.239Z,100686.81
2017-11-15T07:13:19.498Z,100693.05
2017-11-15T07:15:45.721Z,100700.33
2017-11-15T07:18:12.015Z,100703.71
2017-11-15T07:20:38.248Z,100709.45
2017-11-15T07:23:04.479Z,100713.98
2017-11-15T07:25:30.744Z,100724.04
2017-11-15T07:27:56.982Z,100721.20
2017-11-15T07:30:23.217Z,100717.79
2017-11-15T07:32:49.493Z,100719.10
2017-11-15T07:35:15.706Z,100722.14
2017-11-15T07:37:41.965Z,100727.57
2017-11-15T07:40:08.287Z,100727.42
2017-11-15T07:42:34.518Z,100723.04
2017-11-15T07:45:00.768Z,100723.11
2017-11-15T07:47:27.051Z,100724.73
2017-11-15T07:49:53.383Z,100715.59
2017-11-15T07:52:19.621Z,100732.66
2017-11-15T07:54:45.893Z,100735.72
2017-11-15T07:57:12.134Z,100737.79
2017-11-15T07:59:38.369Z,100738.05
2017-11-15T08:02:04.658Z,100732.52
2017-11-15T08:04:30.902Z,100727.44
2017-11-15T08:06:57.151Z,100727.53
2017-11-15T08:09:23.436Z,100738.56
2017-11-15T08:11:49.884Z,100728.73
2017-11-15T08:14:16.119Z,100729.70
2017-11-15T08:16:42.378Z,100737.35
2017-11-15T08:19:08.609Z,100736.77
2017-11-15T08:21:34.847Z,100737.03
2017-11-15T08:24:01.114Z,100732.43
2017-11-15T08:26:27.341Z,100741.25
2017-11-15T08:28:53.616Z,100737.19
2017-11-15T08:31:19.906Z,100741.72
2017-11-15T08:33:46.150Z,100745.80
2017-11-15T08:36:12.390Z,100742.81
2017-11-15T08:38:38.670Z,100743.42
2017-11-15T08:41:05.037Z,100736.61
2017-11-15T08:43:31.283Z,100739.91
2017-11-15T08:45:57.571Z,100740.98
2017-11-15T08:48:23.807Z,100733.48
2017-11-15T08:50:50.059Z,100725.55
2017-11-15T08:53:16.333Z,100718.02
2017-11-15T08:55:42.563Z,100716.53
2017-11-15T08:58:08.783Z,100711.61
2017-11-15T09:00:35.090Z,100714.50
2017-11-15T09:03:01.340Z,100723.18
2017-11-15T09:05:27.571Z,100720.48
2017-11-15T09:07:53.831Z,100715.49
2017-11-15T09:10:20.064Z,100727.94
2017-11-15T09:12:46.315Z,100734.66
2017-11-15T09:15:12.657Z,100739.60
2017-11-15T09:17:38.883Z,100739.91
2017-11-15T09:20:05.116Z,100745.34
2017-11-15T09:22:31.382Z,100740.12
2017-11-15T09:24:57.766Z,100741.63
2017-11-15T09:27:24.013Z,100740.95
2017-11-15T09:29:50.291Z,100741.92
2017-11-15T09:32:16.516Z,100748.75
2017-11-15T09:34:42.764Z,100755.64
2017-11-15T09:37:09.027Z,100747.75
2017-11-15T09:39:35.255Z,100746.63
2017-11-15T09:42:01.500Z,100749.96
2017-11-15T09:44:27.820Z,100747.28
2017-11-15T09:46:54.052Z,100745.23
2017-11-15T09:49:20.286Z,100736.82
2017-11-15T09:51:46.682Z,100732.64
2017-11-15T09:54:12.922Z,100727.56
2017-11-15T09:56:39.177Z,100717.91
2017-11-15T09:59:05.447Z,100726.64
2017-11-15T10:01:31.680Z,100737.45
2017-11-15T10:03:57.915Z,100742.41
2017-11-15T10:06:24.188Z,100744.27
2017-11-15T10:08:50.426Z,100736.94
2017-11-15T10:11:16.681Z,100741.23
2017-11-15T10:13:42.988Z,100744.50
2017-11-15T10:16:09.237Z,100747.08
2017-11-15T10:18:35.482Z,100750.55
2017-11-15T10:21:01.776Z,100748.87
2017-11-15T10:23:28.049Z,100751.66
2017-11-15T10:25:54.291Z,100752.86
2017-11-15T10:28:20.566Z,100748.63
2017-11-15T10:30:46.800Z,100749.72
2017-11-15T10:33:13.046Z,100755.66
2017-11-15T10:35:39.323Z,100757.46
2017-11-15T10:38:05.579Z,100758.86
2017-11-15T10:40:31.831Z,100762.61
2017-11-15T10:42:58.119Z,100763.86
2017-11-15T10:45:24.362Z,100767.02
2017-11-15T10:47:50.591Z,100764.11
2017-11-15T10:50:16.853Z,100758.74
2017-11-15T10:52:43.087Z,100759.11
2017-11-15T10:55:09.337Z,100763.80
2017-11-15T10:57:35.628Z,100757.57
2017-11-15T11:00:01.849Z,100758.89
2017-11-15T11:02:28.084Z,100761.75
2017-11-15T11:04:54.354Z,100759.84
2017-11-15T11:07:21.150Z,100757.86
2017-11-15T11:09:48.417Z,100749.77
2017-11-15T11:12:15.923Z,100746.53
2017-11-15T11:14:42.978Z,100743.11
2017-11-15T11:17:09.368Z,100746.99
2017-11-15T11:19:35.631Z,100748.90
2017-11-15T11:22:01.873Z,100748.98
2017-11-15T11:24:28.110Z,100749.72
2017-11-15T11:26:54.388Z,100735.34
2017-11-15T11:29:20.626Z,100732.89
2017-11-15T11:31:46.864Z,100732.83
2017-11-15T11:34:13.146Z,100736.34
2017-11-15T11:36:39.401Z,100728.05
2017-11-15T11:39:05.638Z,100729.03
2017-11-15T11:41:31.894Z,100730.17
2017-11-15T11:43:58.129Z,100733.73
2017-11-15T11:46:24.390Z,100740.53
2017-11-15T11:48:50.670Z,100738.42
2017-11-15T11:51:16.937Z,100737.49
2017-11-15T11:53:43.158Z,100741.27
2017-11-15T11:56:09.428Z,100736.77
2017-11-15T11:58:35.675Z,100745.08
2017-11-15T12:01:01.919Z,100746.26
2017-11-15T12:03:28.211Z,100742.86
2017-11-15T12:05:54.453Z,100731.55
2017-11-15T12:08:20.683Z,100728.25
2017-11-15T12:10:46.968Z,100743.62
2017-11-15T12:13:13.205Z,100743.62
2017-11-15T12:15:39.446Z,100739.84
2017-11-15T12:18:05.710Z,100741.20
2017-11-15T12:20:31.960Z,100736.36
2017-11-15T12:22:58.215Z,100737.02
2017-11-15T12:25:24.507Z,100730.27
2017-11-15T12:27:50.747Z,100732.44
2017-11-15T12:30:16.983Z,100735.63
2017-11-15T12:32:43.318Z,100743.51
2017-11-15T12:35:09.553Z,100745.77
2017-11-15T12:37:35.800Z,100747.91
2017-11-15T12:40:02.088Z,100755.36
2017-11-15T12:42:28.454Z,100750.61
2017-11-15T12:44:54.713Z,100747.32
2017-11-15T12:47:20.980Z,100747.62
2017-11-15T12:49:47.227Z,100746.13
2017-11-15T12:52:13.486Z,100746.64
2017-11-15T12:54:39.763Z,100746.16
2017-11-15T12:57:06.046Z,100743.41
2017-11-15T12:59:32.320Z,100738.56
2017-11-15T13:01:58.595Z,100739.27
2017-11-15T13:04:24.823Z,100728.52
2017-11-15T13:06:51.390Z,100734.66
2017-11-15T13:09:17.669Z,100733.39
2017-11-15T13:11:43.943Z,100736.80
2017-11-15T13:14:10.177Z,100732.04
2017-11-15T13:16:36.558Z,100729.27
2017-11-15T13:19:02.833Z,100725.05
2017-11-15T13:21:29.058Z,100726.49
2017-11-15T13:23:55.344Z,100726.80
2017-11-15T13:26:21.578Z,100727.25
2017-11-15T13:28:47.893Z,100723.25
2017-11-15T13:31:14.181Z,100725.36
2017-11-15T13:33:40.408Z,100722.84
2017-11-15T13:36:06.627Z,100723.64
2017-11-15T13:38:32.888Z,100720.91
2017-11-15T13:40:59.464Z,100723.38
2017-11-15T13:43:25.675Z,100732.14
2017-11-15T13:45:51.972Z,100736.00
2017-11-15T13:48:18.190Z,100732.59
2017-11-15T13:50:44.435Z,100736.36
2017-11-15T13:53:10.717Z,100738.97
2017-11-15T13:55:36.961Z,100737.88
2017-11-15T13:58:03.201Z,100742.72
2017-11-15T14:00:29.479Z,100745.63
2017-11-15T14:02:55.712Z,100746.53
2017-11-15T14:05:21.981Z,100748.01
2017-11-15T14:07:48.335Z,100742.12
2017-11-15T14:10:14.554Z,100750.98
2017-11-15T14:12:40.790Z,100752.95
2017-11-15T14:15:07.079Z,100749.53
2017-11-15T14:17:33.299Z,100747.08
2017-11-15T14:19:59.520Z,100750.78
2017-11-15T14:22:25.788Z,100749.85
2017-11-15T14:24:52.028Z,100753.97
2017-11-15T14:27:18.267Z,100763.58
2017-11-15T14:29:44.571Z,100764.42
2017-11-15T14:32:10.794Z,100767.92
2017-11-15T14:34:37.031Z,100769.70
2017-11-15T14:37:03.301Z,100766.89
2017-11-15T14:39:29.561Z,100755.84
2017-11-15T14:41:55.802Z,100773.45
2017-11-15T14:44:22.077Z,100767.42
2017-11-15T14:46:48.299Z,100770.16
2017-11-15T14:49:14.537Z,100772.11
2017-11-15T14:51:40.800Z,100774.83
2017-11-15T14:54:07.035Z,100768.41
2017-11-15T14:56:33.293Z,100764.58
2017-11-15T14:58:59.786Z,100754.72
2017-11-15T15:01:26.031Z,100758.72
2017-11-15T15:03:52.264Z,100756.38
2017-11-15T15:06:18.688Z,100763.50
2017-11-15T15:08:45.320Z,100761.83
2017-11-15T15:11:11.962Z,100761.98
2017-11-15T15:13:38.212Z,100750.55
2017-11-15T15:16:04.612Z,100749.02
2017-11-15T15:18:30.896Z,100755.23
2017-11-15T15:20:57.172Z,100754.44
2017-11-15T15:23:23.412Z,100763.00
2017-11-15T15:25:49.729Z,100758.28
2017-11-15T15:28:15.992Z,100759.84
2017-11-15T15:30:42.216Z,100762.34
2017-11-15T15:33:08.616Z,100760.81
2017-11-15T15:35:34.879Z,100768.34
2017-11-15T15:38:01.111Z,100764.33
2017-11-15T15:40:27.342Z,100762.57
2017-11-15T15:42:53.617Z,100774.94
2017-11-15T15:45:19.861Z,100778.32
2017-11-15T15:47:46.102Z,100782.98
2017-11-15T15:50:12.357Z,100780.41
2017-11-15T15:52:38.650Z,100779.66
2017-11-15T15:55:04.882Z,100786.20
2017-11-15T15:57:31.159Z,100782.50
2017-11-15T15:59:57.395Z,100785.94
2017-11-15T16:02:23.634Z,100784.72
2017-11-15T16:04:49.919Z,100790.08
2017-11-15T16:07:16.168Z,100790.78
2017-11-15T16:09:42.466Z,100785.78
2017-11-15T16:12:08.750Z,100790.27
2017-11-15T16:14:34.976Z,100797.65
2017-11-15T16:17:01.196Z,100797.69
2017-11-15T16:19:27.469Z,100795.64
2017-11-15T16:21:53.724Z,100799.53
2017-11-15T16:24:19.969Z,100795.81
2017-11-15T16:26:46.261Z,100796.13
2017-11-15T16:29:12.494Z,100797.71
2017-11-15T16:31:38.717Z,100802.59
2017-11-15T16:34:04.965Z,100803.13
2017-11-15T16:36:31.206Z,100807.84
2017-11-15T16:38:57.502Z,100809.19
2017-11-15T16:41:23.768Z,100812.59
2017-11-15T16:43:50.001Z,100808.61
2017-11-15T16:46:16.226Z,100808.45
2017-11-15T16:48:42.502Z,100813.33
2017-11-15T16:51:08.734Z,100798.80
2017-11-15T16:53:34.977Z,100809.53
2017-11-15T16:56:01.264Z,100809.41
2017-11-15T16:58:27.481Z,100806.09
2017-11-15T17:00:53.695Z,100805.70
2017-11-15T17:03:19.955Z,100805.69
2017-11-15T17:05:46.194Z,100807.52
2017-11-15T17:08:12.436Z,100812.23
2017-11-15T17:10:38.721Z,100804.52
2017-11-15T17:13:04.931Z,100796.73
2017-11-15T17:15:31.161Z,100793.28
2017-11-15T17:17:57.472Z,100786.86
2017-11-15T17:20:23.695Z,100791.37
2017-11-15T17:22:49.915Z,100796.16
2017-11-15T17:25:16.181Z,100793.61
2017-11-15T17:27:42.402Z,100797.48
2017-11-15T17:30:08.809Z,100798.80
2017-11-15T17:32:35.073Z,100800.17
2017-11-15T17:35:01.298Z,100797.77
2017-11-15T17:37:27.545Z,100790.84
2017-11-15T17:39:53.830Z,100794.22
2017-11-15T17:42:20.051Z,100795.41
2017-11-15T17:44:46.283Z,100795.31
2017-11-15T17:47:12.546Z,100797.80
2017-11-15T17:49:38.767Z,100793.73
2017-11-15T17:52:04.969Z,100795.28
2017-11-15T17:54:31.234Z,100793.94
2017-11-15T17:56:57.465Z,100796.52
2017-11-15T17:59:23.693Z,100789.50
2017-11-15T18:01:49.966Z,100793.95
2017-11-15T18:04:16.208Z,100787.05
2017-11-15T18:06:42.426Z,100781.75
2017-11-15T18:09:09.162Z,100792.56
2017-11-15T18:11:35.393Z,100797.31
2017-11-15T18:14:01.631Z,100796.94
2017-11-15T18:16:27.888Z,100801.00
2017-11-15T18:18:54.106Z,100799.42
2017-11-15T18:21:20.330Z,100801.40
2017-11-15T18:23:46.589Z,100798.45
2017-11-15T18:26:12.802Z,100799.30
2017-11-15T18:28:39.032Z,100795.59
2017-11-15T18:31:05.307Z,100796.00
2017-11-15T18:33:31.561Z,100796.81
2017-11-15T18:35:57.798Z,100796.11
2017-11-15T18:38:24.055Z,100805.86
2017-11-15T18:40:50.278Z,100804.55
2017-11-15T18:43:16.509Z,100807.45
2017-11-15T18:45:42.778Z,100815.81
2017-11-15T18:48:08.995Z,100816.98
2017-11-15T18:50:35.216Z,100816.59
2017-11-15T18:53:01.486Z,100820.70
2017-11-15T18:55:27.731Z,100823.43
2017-11-15T18:57:53.968Z,100824.16
2017-11-15T19:00:20.240Z,100821.33
2017-11-15T19:02:46.463Z,100826.08
2017-11-15T19:05:12.687Z,100826.53
2017-11-15T19:07:38.955Z,100828.39
2017-11-15T19:10:05.179Z,100829.64
2017-11-15T19:12:31.417Z,100830.47
2017-11-15T19:14:57.868Z,100833.78
2017-11-15T19:17:24.101Z,100831.92
2017-11-15T19:19:50.324Z,100827.20
2017-11-15T19:22:16.584Z,100828.61
2017-11-15T19:24:42.817Z,100829.28
2017-11-15T19:27:09.030Z,100823.18
2017-11-15T19:29:35.296Z,100829.87
2017-11-15T19:32:01.534Z,100826.11
2017-11-15T19:34:27.768Z,100827.13
2017-11-15T19:36:54.018Z,100830.51
2017-11-15T19:39:20.368Z,100826.90
2017-11-15T19:41:46.610Z,100822.94
2017-11-15T19:44:12.883Z,100825.88
2017-11-15T19:46:39.121Z,100833.19
2017-11-15T19:49:05.345Z,100832.73
2017-11-15T19:51:31.610Z,100831.08
2017-11-15T19:53:57.828Z,100832.41
2017-11-15T19:56:24.054Z,100836.87
2017-11-15T19:58:50.315Z,100843.37
2017-11-15T20:01:16.539Z,100840.87
2017-11-15T20:03:42.767Z,100840.75
2017-11-15T20:06:09.031Z,100844.77
2017-11-15T20:08:35.270Z,100853.42
2017-11-15T20:11:01.560Z,100856.41
2017-11-15T20:13:27.834Z,100849.72
2017-11-15T20:15:54.060Z,100846.52
2017-11-15T20:18:20.301Z,100850.48
2017-11-15T20:20:46.578Z,100854.74
2017-11-15T20:23:12.815Z,100857.80
2017-11-15T20:25:39.067Z,100854.92
2017-11-15T20:28:05.340Z,100847.71
2017-11-15T20:30:31.569Z,100855.41
2017-11-15T20:32:57.823Z,100850.37
2017-11-15T20:35:24.085Z,100849.14
2017-11-15T20:37:50.328Z,100849.20
2017-11-15T20:40:16.727Z,100851.90
2017-11-15T20:42:43.032Z,100856.61
2017-11-15T20:45:09.293Z,100848.16
2017-11-15T20:47:35.531Z,100852.91
2017-11-15T20:50:01.800Z,100853.89
2017-11-15T20:52:28.022Z,100848.91
2017-11-15T20:54:54.261Z,100849.67
2017-11-15T20:57:20.540Z,100849.75
2017-11-15T20:59:46.788Z,100852.06
2017-11-15T21:02:13.014Z,100845.98
2017-11-15T21:04:39.275Z,100839.77
2017-11-15T21:07:05.516Z,100845.88
2017-11-15T21:09:31.760Z,100846.80
2017-11-15T21:11:58.054Z,100853.09
2017-11-15T21:14:24.301Z,100846.80
2017-11-15T21:16:50.750Z,100845.36
2017-11-15T21:19:17.036Z,100848.52
2017-11-15T21:21:43.510Z,100840.84
2017-11-15T21:24:09.739Z,100851.66
2017-11-15T21:26:36.009Z,100848.69
2017-11-15T21:29:02.246Z,100858.19
2017-11-15T21:31:28.504Z,100858.19
2017-11-15T21:33:54.768Z,100857.05
2017-11-15T21:36:21.092Z,100855.32
2017-11-15T21:38:47.312Z,100852.32
2017-11-15T21:41:13.590Z,100853.42
2017-11-15T21:43:39.829Z,100861.88
2017-11-15T21:46:06.091Z,100870.92
2017-11-15T21:48:32.350Z,100865.20
2017-11-15T21:50:58.585Z,100867.47
2017-11-15T21:53:24.819Z,100861.63
2017-11-15T21:55:51.092Z,100866.98
2017-11-15T21:58:17.322Z,100859.83
2017-11-15T22:00:43.556Z,100860.14
2017-11-15T22:03:09.838Z,100856.31
2017-11-15T22:05:36.089Z,100852.44
2017-11-15T22:08:02.333Z,100851.25
2017-11-15T22:10:28.599Z,100856.09
2017-11-15T22:12:54.828Z,100856.12
2017-11-15T22:15:21.061Z,100856.44
2017-11-15T22:17:47.337Z,100852.47
2017-11-15T22:20:13.585Z,100853.20
2017-11-15T22:22:39.818Z,100850.41
2017-11-15T22:25:06.091Z,100850.84
2017-11-15T22:27:32.308Z,100847.37
2017-11-15T22:29:58.532Z,100849.40
2017-11-15T22:32:24.794Z,100847.30
2017-11-15T22:34:51.021Z,100848.32
2017-11-15T22:37:17.269Z,100843.77
2017-11-15T22:39:43.533Z,100840.89
2017-11-15T22:42:09.777Z,100841.77
2017-11-15T22:44:36.037Z,100834.59
2017-11-15T22:47:03.041Z,100824.23
2017-11-15T22:49:29.285Z,100826.77
2017-11-15T22:51:55.710Z,100828.11
2017-11-15T22:54:21.986Z,100824.21
2017-11-15T22:56:48.218Z,100823.67
2017-11-15T22:59:14.456Z,100820.84
2017-11-15T23:01:40.745Z,100820.55
2017-11-15T23:04:06.983Z,100815.05
2017-11-15T23:06:33.210Z,100815.70
2017-11-15T23:08:59.470Z,100816.97
2017-11-15T23:11:25.694Z,100816.73
2017-11-15T23:13:51.940Z,100818.04
2017-11-15T23:16:18.213Z,100810.47
2017-11-15T23:18:44.438Z,100815.41
2017-11-15T23:21:10.659Z,100812.02
2017-11-15T23:23:36.918Z,100805.72
2017-11-15T23:26:03.295Z,100803.45
2017-11-15T23:28:29.513Z,100808.56
2017-11-15T23:30:55.792Z,100812.73
2017-11-15T23:33:22.042Z,100811.24
2017-11-15T23:35:48.299Z,100814.23
2017-11-15T23:38:14.576Z,100812.17
2017-11-15T23:40:40.806Z,100810.53
2017-11-15T23:43:07.115Z,100811.98
2017-11-15T23:45:33.385Z,100816.37
2017-11-15T23:47:59.610Z,100812.47
2017-11-15T23:50:25.853Z,100814.47
2017-11-15T23:52:52.255Z,100813.39
2017-11-15T23:55:18.492Z,100817.50
2017-11-15T23:57:44.888Z,100820.74
